Cape Vincent, New York
Current Conditions -  °F | °C
As of 7:00 AM on Thursday 27 Nov 2014 (Local Time) from CYGK Reporting Station
Overcast Overcast  
Wind Chill: 17°   Ceiling: 3100
Heat Index: 25°   Visibility: 15mi
Dew Point: 21°   Wind: 7mph
Humidity: 86%   Direction: 340°NNW
Pressure: 30.05"   Gusts: NA
Location:  44.13°N, 76.33°W
Report Text: CYGK 271200Z 34006KT 15SM OVC031 M04/M06 A3005 RMK SC8 SLP181
Loading
Personal Weather Stations






























Interactive Weather Map New forecast layout! Learn more

10-Day Weather Forecast

Advertisements
Track Severe Weather on mobile